Georg Jacob — A8XG5 — position and weather

sailwx.info

Track history (hours):
 
Tides and Currents Weather Stations Pressure Air Temp Water Temp Dewpoint Dewpoint Depression Visibility Wind Speed Wind Dir Waves Ship Positions

Georg Jacob

Last reported at 2017-Feb-05 13:32 UTC. Time now 2017-Feb-27 16:00 UTC.
Position N 01°15' E 104°03'.
Warning: this ship's position is 22 days out of date.

Length 229 m; draft 12.1 m.

Type: Tanker. MMSI: 636092136.

Date/timePositionNaut miles runAvg speedWind from/ knotsBaromVisibWave heightAir tempDewpointWater temp
2017-Feb-05 13:32N 01°15' E 104°03'5 4.4
2017-Feb-05 12:24N 01°17' E 103°58'0 0.0
2017-Feb-05 11:33N 01°17' E 103°58'0 0.0
2017-Feb-05 10:33N 01°17' E 103°58'0 0.1
2017-Feb-05 09:33N 01°17' E 103°58'0 0.0
2017-Feb-05 08:33N 01°17' E 103°58'0 0.0
2017-Feb-05 07:24N 01°17' E 103°58'0 0.1
2017-Feb-05 06:33N 01°17' E 103°59'0 0.1
2017-Feb-05 05:33N 01°17' E 103°59'0 0.1
2017-Feb-05 04:33N 01°17' E 103°59'2 2.4
2017-Feb-05 03:34N 01°15' E 103°57'5 4.8
2017-Feb-05 02:33N 01°12' E 103°53'10 9.5
2017-Feb-05 01:28N 01°07' E 103°45'7612.3
2017-Feb-04 19:16N 01°42' E 102°38'1014.1
2017-Feb-04 18:33N 01°47' E 102°29'1414.2
2017-Feb-04 17:33N 01°54' E 102°16'  
Track history (hours):
 
Tides and Currents Weather Stations Pressure Air Temp Water Temp Dewpoint Dewpoint Depression Visibility Wind Speed Wind Dir Waves Ship Positions

Georg Jacob

Last reported at 2017-Feb-05 13:32 UTC. Time now 2017-Feb-27 16:00 UTC.
Position N 01°15' E 104°03'.
Warning: this ship's position is 22 days out of date.

Length 229 m; draft 12.1 m.

Type: Tanker. MMSI: 636092136.

Date/timePositionNaut miles runAvg speedWind from/ knotsBaromVisibWave heightAir tempDewpointWater temp
2017-Feb-05 13:32N 01°15' E 104°03'5 4.4
2017-Feb-05 12:24N 01°17' E 103°58'0 0.0
2017-Feb-05 11:33N 01°17' E 103°58'0 0.0
2017-Feb-05 10:33N 01°17' E 103°58'0 0.1
2017-Feb-05 09:33N 01°17' E 103°58'0 0.0
2017-Feb-05 08:33N 01°17' E 103°58'0 0.0
2017-Feb-05 07:24N 01°17' E 103°58'0 0.1
2017-Feb-05 06:33N 01°17' E 103°59'0 0.1
2017-Feb-05 05:33N 01°17' E 103°59'0 0.1
2017-Feb-05 04:33N 01°17' E 103°59'2 2.4
2017-Feb-05 03:34N 01°15' E 103°57'5 4.8
2017-Feb-05 02:33N 01°12' E 103°53'10 9.5
2017-Feb-05 01:28N 01°07' E 103°45'7612.3
2017-Feb-04 19:16N 01°42' E 102°38'1014.1
2017-Feb-04 18:33N 01°47' E 102°29'1414.2
2017-Feb-04 17:33N 01°54' E 102°16'  

Dump ship's entire track history